Camerino, Italy

1:21 PM CET on February 12, 2016 (GMT +0100)
Palazzo Mancinelli di Gualdo Tadino | | Change Station
CLOSE
Current Station
Personal Weather Station
Location: Gualdo Tadino, UMBRIA
Elevation: 1493 ft
Nearby Weather Stations

Elev 1493 ft 43.26 °N, 12.77 °E | Updated 3 minutes ago

Overcast
Overcast
47.8 °F
Feels Like 43 °F
N
10.0
Wind Variable Wind from South
Gusts 19.0 mph

Today
High -- | Low -- °F
--% Chance of Precip.
Yesterday
High -- | Low -- °F
Precip. -- in
Pressure 29.62 in
Visibility 6.2 miles
Clouds Mostly Cloudy 2000 ft
Windchill 43 °F
Dew Point 43 °F
Humidity 83%
Rainfall 0.11 in
Snow Depth Not available.
7:10 AM 5:33 PM
Waxing Crescent, 20% visible
METAR LIVF 121155Z 28007KT 9999 -RA BKN020 08/07 Q1003 RMK BKN SCT070 MON CIME INC NC VAL NIL VIS MIN 9999
Pressure 29.62 in
Visibility 6.2 miles
Clouds Mostly Cloudy 2000 ft
Windchill 43 °F
Dew Point 43 °F
Humidity 83%
Rainfall 0.11 in
Snow Depth Not available.
7:10 AM 5:33 PM
Waxing Crescent, 20% visible
METAR LIVF 121155Z 28007KT 9999 -RA BKN020 08/07 Q1003 RMK BKN SCT070 MON CIME INC NC VAL NIL VIS MIN 9999

10-Day Weather Forecast

Almanac

Astronomy

Feb. 12, 2016 Rise Set
Actual Time
Civil Twilight
Nautical Twilight
Astronomical Twilight
Moon
Length of Visible Light
Length of Day
Tomorrow will be .
, % of the Moon is Illuminated

Today's Extremes

Country Highs Country Lows

Community

WunderPhotos

Upload Photos

1,892,295 photos uploaded!

WunderBlog® & News

Nearby

Air Quality

  Air Quality AQ Index Pollutant
Not available.

Snow Depth

Station Depth Elevation

Earthquake Activity

City Distance Mag. Time & Date
Minimum magnitude displayed is 2.5.

Coastal Water Temperatures

Place Temperature

Stations

Nearby Weather Stations

Station Location Temp. Windchill Dew Point Humidity Wind Precip. Elev Updated Type